sensor_id;sensor_type;location;lat;lon;timestamp;P1;durP1;ratioP1;P2;durP2;ratioP2
36377;SDS011;22402;42.746;23.606;2022-10-17T00:01:04;19.77;;;6.90;;
36377;SDS011;22402;42.746;23.606;2022-10-17T00:03:30;24.40;;;8.47;;
36377;SDS011;22402;42.746;23.606;2022-10-17T00:05:56;18.30;;;7.30;;
36377;SDS011;22402;42.746;23.606;2022-10-17T00:08:21;18.03;;;6.53;;
36377;SDS011;22402;42.746;23.606;2022-10-17T00:10:59;16.43;;;6.90;;
36377;SDS011;22402;42.746;23.606;2022-10-17T00:13:27;14.10;;;6.70;;
36377;SDS011;22402;42.746;23.606;2022-10-17T00:15:53;18.90;;;8.00;;
36377;SDS011;22402;42.746;23.606;2022-10-17T00:18:18;19.03;;;6.63;;
36377;SDS011;22402;42.746;23.606;2022-10-17T00:20:44;24.53;;;6.77;;
36377;SDS011;22402;42.746;23.606;2022-10-17T00:23:10;15.80;;;6.67;;
36377;SDS011;22402;42.746;23.606;2022-10-17T00:25:35;21.90;;;7.73;;
36377;SDS011;22402;42.746;23.606;2022-10-17T00:28:00;15.67;;;6.27;;
36377;SDS011;22402;42.746;23.606;2022-10-17T00:30:26;15.00;;;6.43;;
36377;SDS011;22402;42.746;23.606;2022-10-17T00:32:51;21.53;;;7.50;;
36377;SDS011;22402;42.746;23.606;2022-10-17T00:35:17;11.40;;;5.70;;
36377;SDS011;22402;42.746;23.606;2022-10-17T00:37:42;20.83;;;7.73;;
36377;SDS011;22402;42.746;23.606;2022-10-17T00:40:08;15.53;;;6.30;;
36377;SDS011;22402;42.746;23.606;2022-10-17T00:42:34;17.93;;;7.27;;
36377;SDS011;22402;42.746;23.606;2022-10-17T00:45:02;15.47;;;6.03;;
36377;SDS011;22402;42.746;23.606;2022-10-17T00:47:39;19.57;;;7.30;;
36377;SDS011;22402;42.746;23.606;2022-10-17T00:50:06;13.83;;;5.60;;
36377;SDS011;22402;42.746;23.606;2022-10-17T00:52:32;24.80;;;8.23;;
36377;SDS011;22402;42.746;23.606;2022-10-17T00:55:03;13.53;;;6.20;;
36377;SDS011;22402;42.746;23.606;2022-10-17T00:57:37;24.03;;;8.33;;
36377;SDS011;22402;42.746;23.606;2022-10-17T01:00:07;21.27;;;6.87;;
36377;SDS011;22402;42.746;23.606;2022-10-17T01:02:35;27.03;;;8.87;;
36377;SDS011;22402;42.746;23.606;2022-10-17T01:05:01;23.53;;;7.60;;
36377;SDS011;22402;42.746;23.606;2022-10-17T01:07:27;26.07;;;8.13;;
36377;SDS011;22402;42.746;23.606;2022-10-17T01:09:54;23.63;;;7.77;;
36377;SDS011;22402;42.746;23.606;2022-10-17T01:34:20;18.77;;;6.73;;
36377;SDS011;22402;42.746;23.606;2022-10-17T01:37:03;23.73;;;7.27;;
36377;SDS011;22402;42.746;23.606;2022-10-17T01:42:00;18.37;;;6.50;;
36377;SDS011;22402;42.746;23.606;2022-10-17T01:44:36;27.13;;;7.53;;
36377;SDS011;22402;42.746;23.606;2022-10-17T01:47:19;20.00;;;7.50;;
36377;SDS011;22402;42.746;23.606;2022-10-17T01:49:49;12.03;;;5.77;;
36377;SDS011;22402;42.746;23.606;2022-10-17T01:52:19;21.07;;;7.43;;
36377;SDS011;22402;42.746;23.606;2022-10-17T01:54:56;13.50;;;6.23;;
36377;SDS011;22402;42.746;23.606;2022-10-17T01:57:32;23.40;;;8.10;;
36377;SDS011;22402;42.746;23.606;2022-10-17T02:00:03;18.90;;;6.50;;
36377;SDS011;22402;42.746;23.606;2022-10-17T02:02:32;22.47;;;7.63;;
36377;SDS011;22402;42.746;23.606;2022-10-17T02:04:59;19.40;;;7.20;;
36377;SDS011;22402;42.746;23.606;2022-10-17T02:07:27;16.10;;;6.63;;
36377;SDS011;22402;42.746;23.606;2022-10-17T02:09:52;16.30;;;6.30;;
36377;SDS011;22402;42.746;23.606;2022-10-17T02:25:28;20.90;;;6.80;;
36377;SDS011;22402;42.746;23.606;2022-10-17T02:28:03;22.93;;;8.03;;
36377;SDS011;22402;42.746;23.606;2022-10-17T02:36:00;32.90;;;15.83;;
36377;SDS011;22402;42.746;23.606;2022-10-17T02:38:30;26.50;;;10.43;;
36377;SDS011;22402;42.746;23.606;2022-10-17T02:40:57;20.03;;;8.43;;
36377;SDS011;22402;42.746;23.606;2022-10-17T02:43:23;26.30;;;8.20;;
36377;SDS011;22402;42.746;23.606;2022-10-17T02:45:49;27.63;;;8.07;;
36377;SDS011;22402;42.746;23.606;2022-10-17T02:48:22;31.00;;;9.30;;
36377;SDS011;22402;42.746;23.606;2022-10-17T02:53:27;20.80;;;8.50;;
36377;SDS011;22402;42.746;23.606;2022-10-17T02:55:58;15.33;;;6.70;;
36377;SDS011;22402;42.746;23.606;2022-10-17T02:58:29;16.33;;;7.17;;
36377;SDS011;22402;42.746;23.606;2022-10-17T03:00:57;23.07;;;8.00;;
36377;SDS011;22402;42.746;23.606;2022-10-17T03:03:27;13.60;;;6.80;;
36377;SDS011;22402;42.746;23.606;2022-10-17T03:05:55;18.83;;;7.20;;
36377;SDS011;22402;42.746;23.606;2022-10-17T03:08:20;23.80;;;8.20;;
36377;SDS011;22402;42.746;23.606;2022-10-17T03:10:46;20.43;;;7.27;;
36377;SDS011;22402;42.746;23.606;2022-10-17T03:13:12;25.77;;;9.47;;
36377;SDS011;22402;42.746;23.606;2022-10-17T03:15:38;30.00;;;9.30;;
36377;SDS011;22402;42.746;23.606;2022-10-17T03:18:03;20.50;;;7.20;;
36377;SDS011;22402;42.746;23.606;2022-10-17T03:20:29;18.10;;;7.43;;
36377;SDS011;22402;42.746;23.606;2022-10-17T03:22:54;21.77;;;7.90;;
36377;SDS011;22402;42.746;23.606;2022-10-17T03:25:20;19.97;;;7.53;;
36377;SDS011;22402;42.746;23.606;2022-10-17T03:27:45;22.63;;;8.07;;
36377;SDS011;22402;42.746;23.606;2022-10-17T03:30:10;19.23;;;7.20;;
36377;SDS011;22402;42.746;23.606;2022-10-17T03:32:36;26.23;;;8.43;;
36377;SDS011;22402;42.746;23.606;2022-10-17T03:35:01;27.33;;;8.13;;
36377;SDS011;22402;42.746;23.606;2022-10-17T03:37:27;14.77;;;6.30;;
36377;SDS011;22402;42.746;23.606;2022-10-17T03:39:53;24.43;;;6.97;;
36377;SDS011;22402;42.746;23.606;2022-10-17T03:42:18;21.93;;;7.17;;
36377;SDS011;22402;42.746;23.606;2022-10-17T03:44:43;20.47;;;7.03;;
36377;SDS011;22402;42.746;23.606;2022-10-17T03:47:09;36.67;;;13.13;;
36377;SDS011;22402;42.746;23.606;2022-10-17T03:49:34;29.30;;;8.37;;
36377;SDS011;22402;42.746;23.606;2022-10-17T03:52:09;27.57;;;8.73;;
36377;SDS011;22402;42.746;23.606;2022-10-17T03:54:36;37.87;;;11.43;;
36377;SDS011;22402;42.746;23.606;2022-10-17T03:57:01;40.03;;;11.00;;
36377;SDS011;22402;42.746;23.606;2022-10-17T03:59:27;49.27;;;12.50;;
36377;SDS011;22402;42.746;23.606;2022-10-17T04:01:52;51.30;;;13.33;;
36377;SDS011;22402;42.746;23.606;2022-10-17T04:04:17;79.97;;;15.50;;
36377;SDS011;22402;42.746;23.606;2022-10-17T04:06:43;57.27;;;10.87;;
36377;SDS011;22402;42.746;23.606;2022-10-17T04:09:08;117.53;;;18.57;;
36377;SDS011;22402;42.746;23.606;2022-10-17T04:11:35;86.27;;;13.30;;
36377;SDS011;22402;42.746;23.606;2022-10-17T04:14:00;123.97;;;16.03;;
36377;SDS011;22402;42.746;23.606;2022-10-17T04:16:26;129.63;;;16.90;;
36377;SDS011;22402;42.746;23.606;2022-10-17T04:18:55;152.97;;;18.67;;
36377;SDS011;22402;42.746;23.606;2022-10-17T04:21:22;154.60;;;19.13;;
36377;SDS011;22402;42.746;23.606;2022-10-17T04:23:52;163.87;;;20.23;;
36377;SDS011;22402;42.746;23.606;2022-10-17T04:26:18;190.53;;;22.10;;
36377;SDS011;22402;42.746;23.606;2022-10-17T04:31:10;171.80;;;20.25;;
36377;SDS011;22402;42.746;23.606;2022-10-17T04:33:37;207.23;;;23.70;;
36377;SDS011;22402;42.746;23.606;2022-10-17T04:36:04;181.03;;;20.87;;
36377;SDS011;22402;42.746;23.606;2022-10-17T04:38:31;218.23;;;25.03;;
36377;SDS011;22402;42.746;23.606;2022-10-17T04:40:58;286.20;;;30.73;;
36377;SDS011;22402;42.746;23.606;2022-10-17T04:43:25;189.87;;;22.23;;
36377;SDS011;22402;42.746;23.606;2022-10-17T04:45:50;182.80;;;21.07;;
36377;SDS011;22402;42.746;23.606;2022-10-17T04:48:18;151.87;;;18.07;;
36377;SDS011;22402;42.746;23.606;2022-10-17T04:50:57;140.13;;;16.83;;
36377;SDS011;22402;42.746;23.606;2022-10-17T04:53:24;197.10;;;23.40;;
36377;SDS011;22402;42.746;23.606;2022-10-17T04:55:50;107.07;;;14.53;;
36377;SDS011;22402;42.746;23.606;2022-10-17T04:58:16;133.03;;;17.30;;
36377;SDS011;22402;42.746;23.606;2022-10-17T05:05:46;133.17;;;17.80;;
36377;SDS011;22402;42.746;23.606;2022-10-17T05:08:11;140.73;;;18.00;;
36377;SDS011;22402;42.746;23.606;2022-10-17T05:10:38;118.73;;;15.07;;
36377;SDS011;22402;42.746;23.606;2022-10-17T05:13:07;146.80;;;18.33;;
36377;SDS011;22402;42.746;23.606;2022-10-17T05:15:33;159.73;;;18.80;;
36377;SDS011;22402;42.746;23.606;2022-10-17T05:18:00;113.50;;;14.87;;
36377;SDS011;22402;42.746;23.606;2022-10-17T05:20:25;113.97;;;14.50;;
36377;SDS011;22402;42.746;23.606;2022-10-17T05:22:51;153.60;;;32.20;;
36377;SDS011;22402;42.746;23.606;2022-10-17T05:25:17;149.63;;;27.20;;
36377;SDS011;22402;42.746;23.606;2022-10-17T05:27:43;199.23;;;23.83;;
36377;SDS011;22402;42.746;23.606;2022-10-17T05:30:18;136.83;;;17.30;;
36377;SDS011;22402;42.746;23.606;2022-10-17T05:32:43;176.33;;;19.97;;
36377;SDS011;22402;42.746;23.606;2022-10-17T05:35:09;226.03;;;25.00;;
36377;SDS011;22402;42.746;23.606;2022-10-17T05:37:35;125.27;;;15.63;;
36377;SDS011;22402;42.746;23.606;2022-10-17T05:40:00;117.37;;;14.37;;
36377;SDS011;22402;42.746;23.606;2022-10-17T05:42:29;203.00;;;22.57;;
36377;SDS011;22402;42.746;23.606;2022-10-17T05:44:57;131.77;;;16.50;;
36377;SDS011;22402;42.746;23.606;2022-10-17T05:47:23;131.03;;;15.77;;
36377;SDS011;22402;42.746;23.606;2022-10-17T05:49:48;145.57;;;16.70;;
36377;SDS011;22402;42.746;23.606;2022-10-17T05:52:14;199.00;;;22.37;;
36377;SDS011;22402;42.746;23.606;2022-10-17T05:54:39;162.57;;;18.30;;
36377;SDS011;22402;42.746;23.606;2022-10-17T05:57:05;104.27;;;13.27;;
36377;SDS011;22402;42.746;23.606;2022-10-17T05:59:30;62.63;;;9.47;;
36377;SDS011;22402;42.746;23.606;2022-10-17T06:01:55;109.77;;;14.43;;
36377;SDS011;22402;42.746;23.606;2022-10-17T06:04:21;73.87;;;10.77;;
36377;SDS011;22402;42.746;23.606;2022-10-17T06:06:46;79.10;;;11.63;;
36377;SDS011;22402;42.746;23.606;2022-10-17T06:09:15;89.83;;;12.13;;
36377;SDS011;22402;42.746;23.606;2022-10-17T06:11:40;95.17;;;12.67;;
36377;SDS011;22402;42.746;23.606;2022-10-17T06:14:05;82.63;;;11.93;;
36377;SDS011;22402;42.746;23.606;2022-10-17T06:16:31;69.80;;;10.43;;
36377;SDS011;22402;42.746;23.606;2022-10-17T06:18:56;77.03;;;11.40;;
36377;SDS011;22402;42.746;23.606;2022-10-17T06:21:25;72.47;;;11.70;;
36377;SDS011;22402;42.746;23.606;2022-10-17T06:23:51;73.20;;;11.87;;
36377;SDS011;22402;42.746;23.606;2022-10-17T06:26:17;78.23;;;11.97;;
36377;SDS011;22402;42.746;23.606;2022-10-17T06:28:43;87.60;;;13.33;;
36377;SDS011;22402;42.746;23.606;2022-10-17T06:31:12;143.60;;;19.60;;
36377;SDS011;22402;42.746;23.606;2022-10-17T06:33:39;108.87;;;15.73;;
36377;SDS011;22402;42.746;23.606;2022-10-17T06:36:05;73.37;;;12.43;;
36377;SDS011;22402;42.746;23.606;2022-10-17T06:38:35;124.60;;;17.90;;
36377;SDS011;22402;42.746;23.606;2022-10-17T06:41:11;149.27;;;20.93;;
36377;SDS011;22402;42.746;23.606;2022-10-17T06:43:38;128.97;;;18.60;;
36377;SDS011;22402;42.746;23.606;2022-10-17T06:46:05;76.80;;;12.90;;
36377;SDS011;22402;42.746;23.606;2022-10-17T06:48:31;102.33;;;15.33;;
36377;SDS011;22402;42.746;23.606;2022-10-17T06:50:57;97.17;;;14.80;;
36377;SDS011;22402;42.746;23.606;2022-10-17T06:53:27;81.77;;;13.00;;
36377;SDS011;22402;42.746;23.606;2022-10-17T06:55:54;75.77;;;13.70;;
36377;SDS011;22402;42.746;23.606;2022-10-17T06:58:19;98.03;;;14.17;;
36377;SDS011;22402;42.746;23.606;2022-10-17T07:00:45;115.63;;;16.73;;
36377;SDS011;22402;42.746;23.606;2022-10-17T07:03:10;76.40;;;13.43;;
36377;SDS011;22402;42.746;23.606;2022-10-17T07:05:36;64.70;;;10.50;;
36377;SDS011;22402;42.746;23.606;2022-10-17T07:08:03;101.83;;;15.03;;
36377;SDS011;22402;42.746;23.606;2022-10-17T07:10:28;77.20;;;12.27;;
36377;SDS011;22402;42.746;23.606;2022-10-17T07:12:54;88.27;;;13.30;;
36377;SDS011;22402;42.746;23.606;2022-10-17T07:15:19;104.83;;;13.47;;
36377;SDS011;22402;42.746;23.606;2022-10-17T07:17:47;92.63;;;13.43;;
36377;SDS011;22402;42.746;23.606;2022-10-17T07:20:13;123.97;;;15.50;;
36377;SDS011;22402;42.746;23.606;2022-10-17T07:22:38;153.70;;;18.53;;
36377;SDS011;22402;42.746;23.606;2022-10-17T07:25:03;139.00;;;17.77;;
36377;SDS011;22402;42.746;23.606;2022-10-17T07:27:29;60.37;;;9.80;;
36377;SDS011;22402;42.746;23.606;2022-10-17T07:29:54;98.00;;;13.17;;
36377;SDS011;22402;42.746;23.606;2022-10-17T07:32:20;85.50;;;12.53;;
36377;SDS011;22402;42.746;23.606;2022-10-17T07:34:45;94.40;;;12.63;;
36377;SDS011;22402;42.746;23.606;2022-10-17T07:37:10;89.50;;;12.50;;
36377;SDS011;22402;42.746;23.606;2022-10-17T07:39:36;67.43;;;10.93;;
36377;SDS011;22402;42.746;23.606;2022-10-17T07:42:01;68.27;;;10.37;;
36377;SDS011;22402;42.746;23.606;2022-10-17T07:44:26;85.10;;;11.37;;
36377;SDS011;22402;42.746;23.606;2022-10-17T07:46:52;118.03;;;14.30;;
36377;SDS011;22402;42.746;23.606;2022-10-17T07:49:17;109.50;;;12.77;;
36377;SDS011;22402;42.746;23.606;2022-10-17T07:51:43;92.07;;;12.20;;
36377;SDS011;22402;42.746;23.606;2022-10-17T07:54:08;92.17;;;12.20;;
36377;SDS011;22402;42.746;23.606;2022-10-17T07:56:33;75.77;;;12.30;;
36377;SDS011;22402;42.746;23.606;2022-10-17T07:58:59;61.63;;;10.57;;
36377;SDS011;22402;42.746;23.606;2022-10-17T08:01:24;59.97;;;9.83;;
36377;SDS011;22402;42.746;23.606;2022-10-17T08:03:50;81.50;;;12.57;;
36377;SDS011;22402;42.746;23.606;2022-10-17T08:06:15;131.20;;;18.37;;
36377;SDS011;22402;42.746;23.606;2022-10-17T08:08:41;79.33;;;12.23;;
36377;SDS011;22402;42.746;23.606;2022-10-17T08:11:08;78.07;;;13.50;;
36377;SDS011;22402;42.746;23.606;2022-10-17T08:13:35;83.70;;;14.27;;
36377;SDS011;22402;42.746;23.606;2022-10-17T08:16:03;74.17;;;12.90;;
36377;SDS011;22402;42.746;23.606;2022-10-17T08:18:31;83.60;;;13.20;;
36377;SDS011;22402;42.746;23.606;2022-10-17T08:20:59;49.33;;;9.80;;
36377;SDS011;22402;42.746;23.606;2022-10-17T08:23:26;60.97;;;10.00;;
36377;SDS011;22402;42.746;23.606;2022-10-17T08:25:52;66.80;;;11.80;;
36377;SDS011;22402;42.746;23.606;2022-10-17T08:28:18;69.23;;;10.90;;
36377;SDS011;22402;42.746;23.606;2022-10-17T08:30:43;57.10;;;9.73;;
36377;SDS011;22402;42.746;23.606;2022-10-17T08:33:08;85.07;;;13.40;;
36377;SDS011;22402;42.746;23.606;2022-10-17T08:35:33;67.47;;;12.73;;
36377;SDS011;22402;42.746;23.606;2022-10-17T08:37:59;84.50;;;12.70;;
36377;SDS011;22402;42.746;23.606;2022-10-17T08:40:25;59.47;;;9.73;;
36377;SDS011;22402;42.746;23.606;2022-10-17T08:43:00;65.77;;;10.83;;
36377;SDS011;22402;42.746;23.606;2022-10-17T08:45:59;70.37;;;10.93;;
36377;SDS011;22402;42.746;23.606;2022-10-17T08:48:27;61.33;;;10.57;;
36377;SDS011;22402;42.746;23.606;2022-10-17T08:51:02;55.37;;;9.80;;
36377;SDS011;22402;42.746;23.606;2022-10-17T08:56:34;56.73;;;9.53;;
36377;SDS011;22402;42.746;23.606;2022-10-17T08:59:12;76.17;;;11.90;;
36377;SDS011;22402;42.746;23.606;2022-10-17T09:01:47;63.87;;;11.17;;
36377;SDS011;22402;42.746;23.606;2022-10-17T09:04:30;71.43;;;11.43;;
36377;SDS011;22402;42.746;23.606;2022-10-17T09:17:50;65.57;;;10.00;;
36377;SDS011;22402;42.746;23.606;2022-10-17T09:20:21;105.97;;;15.63;;
36377;SDS011;22402;42.746;23.606;2022-10-17T09:23:00;62.20;;;10.70;;
36377;SDS011;22402;42.746;23.606;2022-10-17T09:25:31;81.73;;;13.10;;
36377;SDS011;22402;42.746;23.606;2022-10-17T09:33:08;57.60;;;9.93;;
36377;SDS011;22402;42.746;23.606;2022-10-17T09:35:37;67.27;;;10.90;;
36377;SDS011;22402;42.746;23.606;2022-10-17T09:38:04;43.70;;;7.60;;
36377;SDS011;22402;42.746;23.606;2022-10-17T09:40:39;56.03;;;9.13;;
36377;SDS011;22402;42.746;23.606;2022-10-17T09:43:04;64.00;;;8.83;;
36377;SDS011;22402;42.746;23.606;2022-10-17T09:45:38;79.37;;;10.50;;
36377;SDS011;22402;42.746;23.606;2022-10-17T09:48:10;113.17;;;14.37;;
36377;SDS011;22402;42.746;23.606;2022-10-17T09:50:46;83.20;;;11.03;;
36377;SDS011;22402;42.746;23.606;2022-10-17T09:53:13;116.43;;;15.17;;
36377;SDS011;22402;42.746;23.606;2022-10-17T09:55:48;52.07;;;7.80;;
36377;SDS011;22402;42.746;23.606;2022-10-17T09:58:17;52.83;;;8.17;;
36377;SDS011;22402;42.746;23.606;2022-10-17T10:00:45;81.97;;;10.70;;
36377;SDS011;22402;42.746;23.606;2022-10-17T10:05:37;67.23;;;9.43;;
36377;SDS011;22402;42.746;23.606;2022-10-17T10:08:04;60.97;;;8.53;;
36377;SDS011;22402;42.746;23.606;2022-10-17T10:10:41;88.23;;;11.57;;
36377;SDS011;22402;42.746;23.606;2022-10-17T10:15:39;65.87;;;9.97;;
36377;SDS011;22402;42.746;23.606;2022-10-17T10:21:03;43.90;;;7.07;;
36377;SDS011;22402;42.746;23.606;2022-10-17T10:23:36;70.60;;;9.60;;
36377;SDS011;22402;42.746;23.606;2022-10-17T10:26:03;116.77;;;16.03;;
36377;SDS011;22402;42.746;23.606;2022-10-17T10:28:39;33.60;;;5.93;;
36377;SDS011;22402;42.746;23.606;2022-10-17T10:31:05;56.67;;;10.00;;
36377;SDS011;22402;42.746;23.606;2022-10-17T10:33:33;57.13;;;8.60;;
36377;SDS011;22402;42.746;23.606;2022-10-17T10:36:02;61.50;;;9.20;;
36377;SDS011;22402;42.746;23.606;2022-10-17T10:38:30;53.70;;;8.17;;
36377;SDS011;22402;42.746;23.606;2022-10-17T10:41:04;39.87;;;6.83;;
36377;SDS011;22402;42.746;23.606;2022-10-17T10:43:33;66.57;;;8.77;;
36377;SDS011;22402;42.746;23.606;2022-10-17T10:45:59;36.57;;;6.47;;
36377;SDS011;22402;42.746;23.606;2022-10-17T10:50:58;53.77;;;8.27;;
36377;SDS011;22402;42.746;23.606;2022-10-17T10:56:15;33.97;;;6.33;;
36377;SDS011;22402;42.746;23.606;2022-10-17T11:06:44;54.13;;;9.00;;
36377;SDS011;22402;42.746;23.606;2022-10-17T11:14:39;45.93;;;7.50;;
36377;SDS011;22402;42.746;23.606;2022-10-17T11:22:39;45.57;;;7.10;;
36377;SDS011;22402;42.746;23.606;2022-10-17T11:27:36;53.47;;;8.53;;
36377;SDS011;22402;42.746;23.606;2022-10-17T11:30:03;42.33;;;6.60;;
36377;SDS011;22402;42.746;23.606;2022-10-17T11:35:04;41.73;;;6.70;;
36377;SDS011;22402;42.746;23.606;2022-10-17T11:37:39;53.40;;;8.77;;
36377;SDS011;22402;42.746;23.606;2022-10-17T11:40:14;49.33;;;7.47;;
36377;SDS011;22402;42.746;23.606;2022-10-17T11:45:21;61.60;;;8.97;;
36377;SDS011;22402;42.746;23.606;2022-10-17T11:47:50;55.60;;;8.70;;
36377;SDS011;22402;42.746;23.606;2022-10-17T11:50:41;44.97;;;7.50;;
36377;SDS011;22402;42.746;23.606;2022-10-17T11:53:18;81.20;;;11.03;;
36377;SDS011;22402;42.746;23.606;2022-10-17T11:55:45;70.20;;;9.00;;
36377;SDS011;22402;42.746;23.606;2022-10-17T11:58:19;51.67;;;8.13;;
36377;SDS011;22402;42.746;23.606;2022-10-17T12:12:25;42.50;;;6.60;;
36377;SDS011;22402;42.746;23.606;2022-10-17T12:14:52;47.17;;;6.90;;
36377;SDS011;22402;42.746;23.606;2022-10-17T12:19:49;64.53;;;8.77;;
36377;SDS011;22402;42.746;23.606;2022-10-17T12:22:19;51.03;;;7.63;;
36377;SDS011;22402;42.746;23.606;2022-10-17T12:24:53;86.77;;;11.40;;
36377;SDS011;22402;42.746;23.606;2022-10-17T12:27:35;66.27;;;9.00;;
36377;SDS011;22402;42.746;23.606;2022-10-17T12:32:37;67.43;;;9.07;;
36377;SDS011;22402;42.746;23.606;2022-10-17T12:35:23;36.67;;;5.73;;
36377;SDS011;22402;42.746;23.606;2022-10-17T12:42:58;43.50;;;7.03;;
36377;SDS011;22402;42.746;23.606;2022-10-17T12:48:12;68.13;;;9.50;;
36377;SDS011;22402;42.746;23.606;2022-10-17T12:56:15;68.53;;;9.83;;
36377;SDS011;22402;42.746;23.606;2022-10-17T12:58:46;59.30;;;7.77;;
36377;SDS011;22402;42.746;23.606;2022-10-17T13:01:36;64.97;;;8.70;;
36377;SDS011;22402;42.746;23.606;2022-10-17T13:04:01;101.67;;;12.67;;
36377;SDS011;22402;42.746;23.606;2022-10-17T13:06:28;56.30;;;8.03;;
36377;SDS011;22402;42.746;23.606;2022-10-17T13:08:59;78.20;;;10.53;;
36377;SDS011;22402;42.746;23.606;2022-10-17T13:11:29;45.80;;;7.13;;
36377;SDS011;22402;42.746;23.606;2022-10-17T13:13:58;74.67;;;10.20;;
36377;SDS011;22402;42.746;23.606;2022-10-17T13:17:12;58.17;;;7.93;;
36377;SDS011;22402;42.746;23.606;2022-10-17T13:19:16;130.70;;;16.23;;
36377;SDS011;22402;42.746;23.606;2022-10-17T13:21:51;64.37;;;9.60;;
36377;SDS011;22402;42.746;23.606;2022-10-17T13:24:22;103.20;;;12.13;;
36377;SDS011;22402;42.746;23.606;2022-10-17T13:26:58;62.83;;;8.50;;
36377;SDS011;22402;42.746;23.606;2022-10-17T13:29:24;57.53;;;8.37;;
36377;SDS011;22402;42.746;23.606;2022-10-17T13:31:52;70.03;;;9.00;;
36377;SDS011;22402;42.746;23.606;2022-10-17T13:34:22;54.53;;;8.07;;
36377;SDS011;22402;42.746;23.606;2022-10-17T13:36:51;81.63;;;10.70;;
36377;SDS011;22402;42.746;23.606;2022-10-17T13:39:20;55.30;;;7.73;;
36377;SDS011;22402;42.746;23.606;2022-10-17T13:41:48;84.33;;;10.73;;
36377;SDS011;22402;42.746;23.606;2022-10-17T13:44:18;47.90;;;7.47;;
36377;SDS011;22402;42.746;23.606;2022-10-17T13:46:45;69.90;;;9.27;;
36377;SDS011;22402;42.746;23.606;2022-10-17T13:49:33;101.20;;;12.00;;
36377;SDS011;22402;42.746;23.606;2022-10-17T13:51:58;54.13;;;7.73;;
36377;SDS011;22402;42.746;23.606;2022-10-17T13:54:36;54.23;;;7.63;;
36377;SDS011;22402;42.746;23.606;2022-10-17T13:57:04;96.53;;;11.60;;
36377;SDS011;22402;42.746;23.606;2022-10-17T13:59:41;53.87;;;7.47;;
36377;SDS011;22402;42.746;23.606;2022-10-17T14:02:15;47.87;;;7.23;;
36377;SDS011;22402;42.746;23.606;2022-10-17T14:04:43;54.00;;;7.20;;
36377;SDS011;22402;42.746;23.606;2022-10-17T14:07:18;95.03;;;11.30;;
36377;SDS011;22402;42.746;23.606;2022-10-17T14:09:52;64.63;;;8.90;;
36377;SDS011;22402;42.746;23.606;2022-10-17T14:12:18;95.77;;;11.63;;
36377;SDS011;22402;42.746;23.606;2022-10-17T14:14:46;88.70;;;10.73;;
36377;SDS011;22402;42.746;23.606;2022-10-17T14:17:21;46.83;;;7.23;;
36377;SDS011;22402;42.746;23.606;2022-10-17T14:19:52;62.90;;;8.50;;
36377;SDS011;22402;42.746;23.606;2022-10-17T14:24:51;65.67;;;8.90;;
36377;SDS011;22402;42.746;23.606;2022-10-17T14:29:49;83.47;;;10.30;;
36377;SDS011;22402;42.746;23.606;2022-10-17T14:32:16;91.07;;;11.87;;
36377;SDS011;22402;42.746;23.606;2022-10-17T14:34:42;55.27;;;7.80;;
36377;SDS011;22402;42.746;23.606;2022-10-17T14:37:09;98.53;;;12.60;;
36377;SDS011;22402;42.746;23.606;2022-10-17T14:39:36;62.67;;;8.60;;
36377;SDS011;22402;42.746;23.606;2022-10-17T14:42:02;72.90;;;9.67;;
36377;SDS011;22402;42.746;23.606;2022-10-17T14:44:32;85.13;;;11.30;;
36377;SDS011;22402;42.746;23.606;2022-10-17T14:47:00;66.57;;;8.97;;
36377;SDS011;22402;42.746;23.606;2022-10-17T14:49:35;57.70;;;8.20;;
36377;SDS011;22402;42.746;23.606;2022-10-17T14:54:35;57.43;;;7.80;;
36377;SDS011;22402;42.746;23.606;2022-10-17T14:57:07;53.53;;;8.17;;
36377;SDS011;22402;42.746;23.606;2022-10-17T14:59:38;86.17;;;10.97;;
36377;SDS011;22402;42.746;23.606;2022-10-17T15:02:04;60.63;;;8.60;;
36377;SDS011;22402;42.746;23.606;2022-10-17T15:04:29;66.17;;;9.50;;
36377;SDS011;22402;42.746;23.606;2022-10-17T15:06:55;80.77;;;10.77;;
36377;SDS011;22402;42.746;23.606;2022-10-17T15:09:20;61.47;;;8.40;;
36377;SDS011;22402;42.746;23.606;2022-10-17T15:11:45;105.13;;;13.10;;
36377;SDS011;22402;42.746;23.606;2022-10-17T15:14:10;66.63;;;8.57;;
36377;SDS011;22402;42.746;23.606;2022-10-17T15:16:36;151.53;;;17.60;;
36377;SDS011;22402;42.746;23.606;2022-10-17T15:19:01;56.83;;;8.40;;
36377;SDS011;22402;42.746;23.606;2022-10-17T15:21:27;74.87;;;10.57;;
36377;SDS011;22402;42.746;23.606;2022-10-17T15:23:53;118.80;;;13.47;;
36377;SDS011;22402;42.746;23.606;2022-10-17T15:26:19;60.63;;;8.20;;
36377;SDS011;22402;42.746;23.606;2022-10-17T15:28:47;60.33;;;8.20;;
36377;SDS011;22402;42.746;23.606;2022-10-17T15:31:14;64.77;;;8.70;;
36377;SDS011;22402;42.746;23.606;2022-10-17T15:33:42;71.57;;;9.57;;
36377;SDS011;22402;42.746;23.606;2022-10-17T15:36:21;53.30;;;8.17;;
36377;SDS011;22402;42.746;23.606;2022-10-17T15:38:48;53.77;;;8.27;;
36377;SDS011;22402;42.746;23.606;2022-10-17T15:41:14;53.57;;;8.20;;
36377;SDS011;22402;42.746;23.606;2022-10-17T15:43:39;59.30;;;8.93;;
36377;SDS011;22402;42.746;23.606;2022-10-17T15:46:09;35.67;;;6.40;;
36377;SDS011;22402;42.746;23.606;2022-10-17T15:48:37;62.47;;;8.87;;
36377;SDS011;22402;42.746;23.606;2022-10-17T15:51:02;90.10;;;11.50;;
36377;SDS011;22402;42.746;23.606;2022-10-17T15:53:28;48.57;;;7.13;;
36377;SDS011;22402;42.746;23.606;2022-10-17T15:55:53;44.40;;;6.97;;
36377;SDS011;22402;42.746;23.606;2022-10-17T15:58:18;76.67;;;10.27;;
36377;SDS011;22402;42.746;23.606;2022-10-17T16:00:44;77.47;;;11.47;;
36377;SDS011;22402;42.746;23.606;2022-10-17T16:03:10;49.73;;;8.30;;
36377;SDS011;22402;42.746;23.606;2022-10-17T16:05:35;49.70;;;8.70;;
36377;SDS011;22402;42.746;23.606;2022-10-17T16:08:00;100.20;;;12.60;;
36377;SDS011;22402;42.746;23.606;2022-10-17T16:10:26;84.57;;;11.53;;
36377;SDS011;22402;42.746;23.606;2022-10-17T16:12:51;79.40;;;12.93;;
36377;SDS011;22402;42.746;23.606;2022-10-17T16:15:18;66.47;;;10.77;;
36377;SDS011;22402;42.746;23.606;2022-10-17T16:17:45;52.13;;;8.23;;
36377;SDS011;22402;42.746;23.606;2022-10-17T16:20:11;76.50;;;10.63;;
36377;SDS011;22402;42.746;23.606;2022-10-17T16:22:37;65.23;;;9.83;;
36377;SDS011;22402;42.746;23.606;2022-10-17T16:25:03;61.03;;;8.80;;
36377;SDS011;22402;42.746;23.606;2022-10-17T16:27:30;45.73;;;7.90;;
36377;SDS011;22402;42.746;23.606;2022-10-17T16:29:55;50.50;;;8.73;;
36377;SDS011;22402;42.746;23.606;2022-10-17T16:32:21;79.53;;;12.03;;
36377;SDS011;22402;42.746;23.606;2022-10-17T16:34:46;47.27;;;7.17;;
36377;SDS011;22402;42.746;23.606;2022-10-17T16:37:11;56.53;;;9.20;;
36377;SDS011;22402;42.746;23.606;2022-10-17T16:39:36;82.50;;;11.10;;
36377;SDS011;22402;42.746;23.606;2022-10-17T16:42:02;98.37;;;13.80;;
36377;SDS011;22402;42.746;23.606;2022-10-17T16:44:27;49.67;;;8.77;;
36377;SDS011;22402;42.746;23.606;2022-10-17T16:46:56;79.67;;;11.13;;
36377;SDS011;22402;42.746;23.606;2022-10-17T16:49:21;41.77;;;6.80;;